Time;durP1;ratioP1;P1;durP2;ratioP2;P2;SDS_P1;SDS_P2;PMS_P1;PMS_P2;Temp;Humidity;BMP_temperature;BMP_pressure;BME280_temperature;BME280_humidity;BME280_pressure;Samples;Min_cycle;Max_cycle;Signal;HPM_P1;HPM_P2
2021/05/28 00:00:49;;;;;;;1999.90;999.90;;;14.10;99.90;;;;;;5055370;28;20197;-58
2021/05/28 00:03:16;;;;;;;1999.90;999.90;;;14.00;99.90;;;;;;5054950;28;20197;-58
2021/05/28 00:05:42;;;;;;;1999.90;999.90;;;14.00;99.90;;;;;;5055061;28;20180;-58
2021/05/28 00:08:09;;;;;;;1999.90;999.90;;;13.90;99.90;;;;;;5055655;28;20516;-48
2021/05/28 00:10:36;;;;;;;1999.90;999.90;;;13.90;99.90;;;;;;5055288;28;20181;-54
2021/05/28 00:13:03;;;;;;;1999.90;999.90;;;13.80;99.90;;;;;;5055272;28;20668;-50
2021/05/28 00:15:30;;;;;;;1999.90;999.90;;;13.80;99.90;;;;;;5055257;28;20201;-56
2021/05/28 00:17:57;;;;;;;1999.90;999.90;;;13.70;99.90;;;;;;5055236;28;20177;-57
2021/05/28 00:20:24;;;;;;;1999.90;999.90;;;13.70;99.90;;;;;;5054928;28;20691;-58
2021/05/28 00:22:51;;;;;;;1999.90;999.90;;;13.70;99.90;;;;;;5054954;28;20169;-57
2021/05/28 00:25:17;;;;;;;1999.90;999.90;;;13.70;99.90;;;;;;5054918;28;20184;-54
2021/05/28 00:27:45;;;;;;;1999.90;999.90;;;13.60;99.90;;;;;;5054950;28;20523;-58
2021/05/28 00:30:12;;;;;;;1999.90;999.90;;;13.50;99.90;;;;;;5054738;28;20217;-57
2021/05/28 00:32:39;;;;;;;1999.90;999.90;;;13.50;99.90;;;;;;5054868;28;20165;-52
2021/05/28 00:35:07;;;;;;;1999.90;999.90;;;13.40;99.90;;;;;;5054873;28;20177;-57
2021/05/28 00:37:33;;;;;;;1999.90;999.90;;;13.30;99.90;;;;;;5054770;28;20215;-56
2021/05/28 00:40:00;;;;;;;1999.90;999.90;;;13.30;99.90;;;;;;5054784;28;20216;-55
2021/05/28 00:42:27;;;;;;;1999.90;999.90;;;13.30;99.90;;;;;;5054822;28;20165;-56
2021/05/28 00:44:54;;;;;;;1999.90;999.90;;;13.20;99.90;;;;;;5054607;28;20173;-57
2021/05/28 00:47:20;;;;;;;1999.90;999.90;;;13.10;99.90;;;;;;5054641;28;20176;-51
2021/05/28 00:49:47;;;;;;;1999.90;999.90;;;13.20;99.90;;;;;;5054516;28;20240;-59
2021/05/28 00:52:15;;;;;;;1999.90;999.90;;;13.10;99.90;;;;;;5054484;28;20541;-59
2021/05/28 00:54:42;;;;;;;1999.90;999.90;;;13.10;99.90;;;;;;5054483;28;20166;-58
2021/05/28 00:57:09;;;;;;;1999.90;999.90;;;13.10;99.90;;;;;;5054388;28;20170;-59
2021/05/28 00:59:38;;;;;;;1999.90;999.90;;;13.00;99.90;;;;;;5054296;28;20197;-58
2021/05/28 01:02:06;;;;;;;1999.90;999.90;;;13.00;99.90;;;;;;5054165;28;20188;-58
2021/05/28 01:04:34;;;;;;;1999.90;999.90;;;13.00;99.90;;;;;;5054422;28;20176;-56
2021/05/28 01:07:01;;;;;;;1999.90;999.90;;;13.00;99.90;;;;;;5054354;28;20188;-49
2021/05/28 01:09:28;;;;;;;1999.90;999.90;;;13.00;99.90;;;;;;5054184;28;20644;-58
2021/05/28 01:11:54;;;;;;;1999.90;999.90;;;12.90;99.90;;;;;;5054177;28;20537;-58
2021/05/28 01:14:22;;;;;;;1999.90;999.90;;;13.00;99.90;;;;;;5054040;28;20211;-58
2021/05/28 01:16:48;;;;;;;1999.90;999.90;;;13.00;99.90;;;;;;5054063;28;20180;-57
2021/05/28 01:19:15;;;;;;;1999.90;999.90;;;13.00;99.90;;;;;;5053955;28;20166;-59
2021/05/28 01:21:44;;;;;;;1999.90;999.90;;;12.90;99.90;;;;;;5053935;28;20589;-59
2021/05/28 01:24:11;;;;;;;1999.90;999.90;;;12.90;99.90;;;;;;5053927;28;20173;-49
2021/05/28 01:26:38;;;;;;;1999.90;999.90;;;13.00;99.90;;;;;;5053946;28;20165;-58
2021/05/28 01:29:07;;;;;;;1999.90;999.90;;;13.00;99.90;;;;;;5053747;28;20581;-51
2021/05/28 01:31:35;;;;;;;1999.90;999.90;;;13.00;99.90;;;;;;5053885;28;20199;-58
2021/05/28 01:34:02;;;;;;;1999.90;999.90;;;13.00;99.90;;;;;;5053775;28;20177;-43
2021/05/28 01:36:29;;;;;;;1999.90;999.90;;;13.00;99.90;;;;;;5053612;28;20317;-58
2021/05/28 01:38:56;;;;;;;1999.90;999.90;;;13.00;99.90;;;;;;5053632;28;20687;-58
2021/05/28 01:41:30;;;;;;;1999.90;999.90;;;12.90;99.90;;;;;;5053506;28;20203;-56
2021/05/28 01:43:57;;;;;;;1999.90;999.90;;;12.90;99.90;;;;;;5053611;28;20168;-58
2021/05/28 01:46:25;;;;;;;1999.90;999.90;;;12.90;99.90;;;;;;5053462;28;20173;-58
2021/05/28 01:48:52;;;;;;;1999.90;999.90;;;12.90;99.90;;;;;;5053430;28;20165;-58
2021/05/28 01:51:19;;;;;;;1999.90;999.90;;;12.90;99.90;;;;;;5053456;28;20178;-58
2021/05/28 01:53:46;;;;;;;1999.90;999.90;;;12.90;99.90;;;;;;5053369;28;20173;-58
2021/05/28 01:56:12;;;;;;;1999.90;999.90;;;12.90;99.90;;;;;;5053289;28;20181;-50
2021/05/28 01:58:39;;;;;;;1999.90;999.90;;;12.90;99.90;;;;;;5053278;28;20177;-57
2021/05/28 02:01:06;;;;;;;1999.90;999.90;;;12.90;99.90;;;;;;5053260;28;20204;-46
2021/05/28 02:03:33;;;;;;;1999.90;999.90;;;12.90;99.90;;;;;;5053419;28;20223;-54
2021/05/28 02:06:00;;;;;;;1999.90;999.90;;;12.80;99.90;;;;;;5053182;28;20256;-57
2021/05/28 02:08:26;;;;;;;1999.90;999.90;;;12.90;99.90;;;;;;5053152;28;20173;-54
2021/05/28 02:10:53;;;;;;;1999.90;999.90;;;12.90;99.90;;;;;;5053083;28;20173;-59
2021/05/28 02:13:20;;;;;;;1999.90;999.90;;;12.80;99.90;;;;;;5053026;28;20173;-57
2021/05/28 02:15:47;;;;;;;1999.90;999.90;;;12.80;99.90;;;;;;5053018;28;20246;-59
2021/05/28 02:18:14;;;;;;;1999.90;999.90;;;12.80;99.90;;;;;;5052930;28;20172;-58
2021/05/28 02:20:41;;;;;;;1999.90;999.90;;;12.80;99.90;;;;;;5052870;28;20200;-57
2021/05/28 02:23:09;;;;;;;1999.90;999.90;;;12.80;99.90;;;;;;5053047;28;20165;-50
2021/05/28 02:25:35;;;;;;;1999.90;999.90;;;12.80;99.90;;;;;;5052988;28;20173;-59
2021/05/28 02:28:02;;;;;;;1999.90;999.90;;;12.80;99.90;;;;;;5052466;28;20177;-43
2021/05/28 02:30:29;;;;;;;1999.90;999.90;;;12.80;99.90;;;;;;5052652;28;20225;-53
2021/05/28 02:32:57;;;;;;;1999.90;999.90;;;12.80;99.90;;;;;;5052812;28;20615;-46
2021/05/28 02:35:24;;;;;;;1999.90;999.90;;;12.80;99.90;;;;;;5052720;28;20191;-49
2021/05/28 02:37:51;;;;;;;1999.90;999.90;;;12.80;99.90;;;;;;5052799;28;20165;-59
2021/05/28 02:40:18;;;;;;;1999.90;999.90;;;12.80;99.90;;;;;;5052740;28;20204;-59
2021/05/28 02:42:45;;;;;;;1999.90;999.90;;;12.80;99.90;;;;;;5052652;28;20223;-57
2021/05/28 02:45:12;;;;;;;1999.90;999.90;;;12.80;99.90;;;;;;5052665;28;20173;-44
2021/05/28 02:47:38;;;;;;;1999.90;999.90;;;12.90;99.90;;;;;;5052805;28;20161;-59
2021/05/28 02:50:06;;;;;;;1999.90;999.90;;;12.90;99.90;;;;;;5052669;28;20173;-43
2021/05/28 02:52:32;;;;;;;1999.90;999.90;;;12.90;99.90;;;;;;5052639;28;20227;-53
2021/05/28 02:54:59;;;;;;;1999.90;999.90;;;12.90;99.90;;;;;;5052411;28;20181;-59
2021/05/28 02:57:26;;;;;;;1999.90;999.90;;;12.90;99.90;;;;;;5052502;28;20643;-59
2021/05/28 02:59:53;;;;;;;1999.90;999.90;;;12.90;99.90;;;;;;5052390;28;20207;-55
2021/05/28 03:02:20;;;;;;;1999.90;999.90;;;12.90;99.90;;;;;;5052638;28;20180;-58
2021/05/28 03:04:46;;;;;;;1999.90;999.90;;;12.90;99.90;;;;;;5052564;28;20634;-58
2021/05/28 03:07:13;;;;;;;1999.90;999.90;;;12.90;99.90;;;;;;5052507;28;20178;-52
2021/05/28 03:09:40;;;;;;;1999.90;999.90;;;12.90;99.90;;;;;;5052630;28;20181;-53
2021/05/28 03:12:07;;;;;;;1999.90;999.90;;;12.90;99.90;;;;;;5052528;28;20162;-51
2021/05/28 03:14:34;;;;;;;1999.90;999.90;;;12.90;99.90;;;;;;5052569;28;20204;-59
2021/05/28 03:17:01;;;;;;;1999.90;999.90;;;12.90;99.90;;;;;;5052476;28;20165;-59
2021/05/28 03:19:33;;;;;;;1999.90;999.90;;;12.90;99.90;;;;;;5052397;28;20165;-58
2021/05/28 03:24:45;;;;;;;1999.90;999.90;;;12.90;99.90;;;;;;5052782;28;20214;-43
2021/05/28 03:27:12;;;;;;;1999.90;999.90;;;12.90;99.90;;;;;;5052504;28;20170;-59
2021/05/28 03:29:39;;;;;;;1999.90;999.90;;;12.90;99.90;;;;;;5052088;28;20296;-58
2021/05/28 03:32:06;;;;;;;1999.90;999.90;;;12.90;99.90;;;;;;5052265;28;20177;-55
2021/05/28 03:34:33;;;;;;;1999.90;999.90;;;13.00;99.90;;;;;;5052350;28;20230;-58
2021/05/28 03:37:00;;;;;;;1999.90;999.90;;;13.00;99.90;;;;;;5052433;28;20256;-58
2021/05/28 03:39:28;;;;;;;1999.90;999.90;;;12.90;99.90;;;;;;5053638;28;20249;-58
2021/05/28 03:41:54;;;;;;;1999.90;999.90;;;12.90;99.90;;;;;;5055849;28;20272;-58
2021/05/28 03:44:21;;;;;;;1999.90;999.90;;;13.00;99.90;;;;;;5055815;28;20601;-48
2021/05/28 03:46:48;;;;;;;1999.90;999.90;;;13.00;99.90;;;;;;5055983;28;20165;-54
2021/05/28 03:49:15;;;;;;;1999.90;999.90;;;13.00;99.90;;;;;;5055850;28;20196;-51
2021/05/28 03:51:42;;;;;;;1999.90;999.90;;;13.00;99.90;;;;;;5055922;28;20665;-47
2021/05/28 03:54:09;;;;;;;1999.90;999.90;;;13.00;99.90;;;;;;5055744;28;20184;-58
2021/05/28 03:56:37;;;;;;;1999.90;999.90;;;13.00;99.90;;;;;;5055567;28;20169;-50
2021/05/28 03:59:04;;;;;;;1999.90;999.90;;;13.00;99.90;;;;;;5055438;28;20231;-58
2021/05/28 04:01:31;;;;;;;1999.90;999.90;;;13.00;99.90;;;;;;5055397;28;20205;-55
2021/05/28 04:03:57;;;;;;;1999.90;999.90;;;13.00;99.90;;;;;;5055418;28;20173;-58
2021/05/28 04:06:24;;;;;;;1999.90;999.90;;;13.10;99.90;;;;;;5055515;28;20259;-57
2021/05/28 04:08:51;;;;;;;1999.90;999.90;;;13.10;99.90;;;;;;5055513;28;20169;-55
2021/05/28 04:11:18;;;;;;;1999.90;999.90;;;13.10;99.90;;;;;;5055366;28;20185;-55
2021/05/28 04:13:45;;;;;;;1999.90;999.90;;;13.10;99.90;;;;;;5055350;28;20565;-58
2021/05/28 04:16:12;;;;;;;1999.90;999.90;;;13.00;99.90;;;;;;5055183;28;20173;-57
2021/05/28 04:18:39;;;;;;;1999.90;999.90;;;13.10;99.90;;;;;;5055161;28;20173;-58
2021/05/28 04:21:06;;;;;;;1999.90;999.90;;;13.00;99.90;;;;;;5055019;28;20193;-52
2021/05/28 04:23:33;;;;;;;1999.90;999.90;;;13.00;99.90;;;;;;5055052;28;20818;-52
2021/05/28 04:26:00;;;;;;;1999.90;999.90;;;13.00;99.90;;;;;;5055129;28;20180;-45
2021/05/28 04:28:30;;;;;;;1999.90;999.90;;;13.00;99.90;;;;;;5054609;28;20263;-49
2021/05/28 04:30:57;;;;;;;1999.90;999.90;;;13.00;99.90;;;;;;5055065;28;20640;-56
2021/05/28 04:33:25;;;;;;;1999.90;999.90;;;13.00;99.90;;;;;;5054843;28;20165;-58
2021/05/28 04:35:52;;;;;;;1999.90;999.90;;;13.00;99.90;;;;;;5054850;28;20177;-47
2021/05/28 04:38:19;;;;;;;1999.90;999.90;;;13.00;99.90;;;;;;5054952;28;20191;-57
2021/05/28 04:40:48;;;;;;;1999.90;999.90;;;13.00;99.90;;;;;;5054711;28;20201;-47
2021/05/28 04:43:14;;;;;;;1999.90;999.90;;;13.00;99.90;;;;;;5054591;28;20188;-52
2021/05/28 04:45:41;;;;;;;1999.90;999.90;;;13.00;99.90;;;;;;5054553;28;20185;-58
2021/05/28 04:48:08;;;;;;;1999.90;999.90;;;13.00;99.90;;;;;;5054590;28;20169;-58
2021/05/28 04:50:37;;;;;;;1999.90;999.90;;;13.00;99.90;;;;;;5054262;28;20173;-51
2021/05/28 04:53:05;;;;;;;1999.90;999.90;;;13.10;99.90;;;;;;5054580;28;20632;-47
2021/05/28 04:55:33;;;;;;;1999.90;999.90;;;13.00;99.90;;;;;;5054524;28;20169;-52
2021/05/28 04:58:00;;;;;;;1999.90;999.90;;;13.00;99.90;;;;;;5054394;28;20162;-58
2021/05/28 05:00:28;;;;;;;1999.90;999.90;;;13.00;99.90;;;;;;5054045;28;20205;-56
2021/05/28 05:02:55;;;;;;;1999.90;999.90;;;13.00;99.90;;;;;;5054200;28;20165;-40
2021/05/28 05:05:23;;;;;;;1999.90;999.90;;;13.00;99.90;;;;;;5054413;28;20219;-46
2021/05/28 05:07:50;;;;;;;1999.90;999.90;;;13.00;99.90;;;;;;5054205;28;20643;-56
2021/05/28 05:10:17;;;;;;;1999.90;999.90;;;13.10;99.90;;;;;;5054034;28;20169;-57
2021/05/28 05:12:43;;;;;;;1999.90;999.90;;;13.00;99.90;;;;;;5054154;28;20176;-57
2021/05/28 05:15:11;;;;;;;1999.90;999.90;;;13.10;99.90;;;;;;5054053;28;20177;-55
2021/05/28 05:17:38;;;;;;;1999.90;999.90;;;13.10;99.90;;;;;;5054049;28;20165;-55
2021/05/28 05:20:07;;;;;;;1999.90;999.90;;;13.00;99.90;;;;;;5053906;28;20323;-51
2021/05/28 05:22:34;;;;;;;1999.90;999.90;;;13.10;99.90;;;;;;5053962;28;20165;-56
2021/05/28 05:25:01;;;;;;;1999.90;999.90;;;13.00;99.90;;;;;;5053922;28;20173;-57
2021/05/28 05:27:29;;;;;;;1999.90;999.90;;;13.10;99.90;;;;;;5053707;28;20177;-59
2021/05/28 05:29:55;;;;;;;1999.90;999.90;;;13.10;99.90;;;;;;5053513;28;20302;-54
2021/05/28 05:32:22;;;;;;;1999.90;999.90;;;13.10;99.90;;;;;;5053566;28;20180;-56
2021/05/28 05:34:49;;;;;;;1999.90;999.90;;;13.10;99.90;;;;;;5053598;28;20260;-55
2021/05/28 05:37:16;;;;;;;1999.90;999.90;;;13.10;99.90;;;;;;5053543;28;20226;-55
2021/05/28 05:39:43;;;;;;;1999.90;999.90;;;13.10;99.90;;;;;;5053409;28;20197;-48
2021/05/28 05:42:10;;;;;;;1999.90;999.90;;;13.10;99.90;;;;;;5053506;28;20234;-49
2021/05/28 05:44:36;;;;;;;1999.90;999.90;;;13.10;99.90;;;;;;5053391;28;20526;-53
2021/05/28 05:47:03;;;;;;;1999.90;999.90;;;13.10;99.90;;;;;;5053705;28;20211;-42
2021/05/28 05:49:30;;;;;;;1999.90;999.90;;;13.10;99.90;;;;;;5054010;28;20623;-56
2021/05/28 05:51:57;;;;;;;1999.90;999.90;;;13.20;99.90;;;;;;5053406;28;20640;-55
2021/05/28 05:54:24;;;;;;;1999.90;999.90;;;13.10;99.90;;;;;;5053216;28;20176;-59
2021/05/28 05:56:50;;;;;;;1999.90;999.90;;;13.20;99.90;;;;;;5053271;28;20637;-59
2021/05/28 05:59:17;;;;;;;1999.90;999.90;;;13.20;99.90;;;;;;5053134;28;20252;-58
2021/05/28 06:01:44;;;;;;;1999.90;999.90;;;13.20;99.90;;;;;;5052618;28;20691;-58
2021/05/28 06:04:11;;;;;;;1999.90;999.90;;;13.20;99.90;;;;;;5053375;28;20173;-54
2021/05/28 06:06:39;;;;;;;1999.90;999.90;;;13.30;99.90;;;;;;5051975;28;20169;-52
2021/05/28 06:09:07;;;;;;;1999.90;999.90;;;13.40;99.90;;;;;;5053467;28;20567;-49
2021/05/28 06:11:34;;;;;;;1999.90;999.90;;;13.40;99.90;;;;;;5052933;28;20635;-46
2021/05/28 06:14:01;;;;;;;1999.90;999.90;;;13.40;99.90;;;;;;5053144;28;20184;-48
2021/05/28 06:16:27;;;;;;;1999.90;999.90;;;13.40;99.90;;;;;;5053365;28;20166;-51
2021/05/28 06:18:54;;;;;;;1999.90;999.90;;;13.40;99.90;;;;;;5053253;28;20169;-49
2021/05/28 06:21:21;;;;;;;1999.90;999.90;;;13.50;99.90;;;;;;5050318;28;20216;-56
2021/05/28 06:23:48;;;;;;;1999.90;999.90;;;13.60;99.90;;;;;;5052568;28;20184;-47
2021/05/28 06:26:15;;;;;;;1999.90;999.90;;;13.60;99.90;;;;;;5052475;28;20744;-53
2021/05/28 06:28:41;;;;;;;1999.90;999.90;;;13.60;99.90;;;;;;5052494;28;20631;-45
2021/05/28 06:31:08;;;;;;;1999.90;999.90;;;13.60;99.90;;;;;;5052594;28;20537;-46
2021/05/28 06:33:39;;;;;;;1999.90;999.90;;;13.60;99.90;;;;;;5052523;28;20243;-54
2021/05/28 06:36:06;;;;;;;1999.90;999.90;;;13.60;99.90;;;;;;5052340;28;20192;-42
2021/05/28 06:38:33;;;;;;;1999.90;999.90;;;13.70;99.90;;;;;;5052126;28;20165;-51
2021/05/28 06:41:00;;;;;;;1999.90;999.90;;;13.60;99.90;;;;;;5052210;28;20312;-47
2021/05/28 06:43:27;;;;;;;1999.90;999.90;;;13.60;99.90;;;;;;5052313;28;20255;-45
2021/05/28 06:45:53;;;;;;;1999.90;999.90;;;13.60;99.90;;;;;;5050950;28;20234;-47
2021/05/28 06:48:20;;;;;;;1999.90;999.90;;;13.60;99.90;;;;;;5052339;28;20173;-41
2021/05/28 06:50:47;;;;;;;1999.90;999.90;;;13.60;99.90;;;;;;5052362;28;20173;-61
2021/05/28 06:53:14;;;;;;;1999.90;999.90;;;13.70;99.90;;;;;;5052256;28;20184;-48
2021/05/28 06:55:40;;;;;;;1999.90;999.90;;;13.80;99.90;;;;;;5052211;28;20188;-57
2021/05/28 06:58:07;;;;;;;1999.90;999.90;;;13.80;99.90;;;;;;5052460;28;20219;-44
2021/05/28 07:00:34;;;;;;;1999.90;999.90;;;13.80;99.90;;;;;;5052282;28;20204;-42
2021/05/28 07:03:01;;;;;;;1999.90;999.90;;;13.80;99.90;;;;;;5052328;28;20180;-48
2021/05/28 07:05:28;;;;;;;1999.90;999.90;;;13.80;99.90;;;;;;5052365;28;20169;-50
2021/05/28 07:07:56;;;;;;;1999.90;999.90;;;13.90;99.90;;;;;;5052079;28;20661;-45
2021/05/28 07:10:23;;;;;;;1999.90;999.90;;;14.00;99.90;;;;;;5052310;28;20252;-45
2021/05/28 07:12:50;;;;;;;1999.90;999.90;;;13.90;99.90;;;;;;5052472;28;20176;-50
2021/05/28 07:15:18;;;;;;;1999.90;999.90;;;13.90;99.90;;;;;;5056084;28;20535;-43
2021/05/28 07:17:46;;;;;;;1999.90;999.90;;;13.90;99.90;;;;;;5055695;28;20213;-46
2021/05/28 07:20:13;;;;;;;1999.90;999.90;;;13.80;99.90;;;;;;5055559;28;20201;-47
2021/05/28 07:22:40;;;;;;;1999.90;999.90;;;14.00;99.90;;;;;;5055833;28;20612;-41
2021/05/28 07:25:07;;;;;;;1999.90;999.90;;;13.90;99.90;;;;;;5055773;28;20247;-42
2021/05/28 07:27:34;;;;;;;1999.90;999.90;;;14.10;99.90;;;;;;5055481;28;20177;-42
2021/05/28 07:30:03;;;;;;;1999.90;999.90;;;14.10;99.90;;;;;;5055647;28;20320;-45
2021/05/28 07:32:30;;;;;;;1999.90;999.90;;;14.10;99.90;;;;;;5055489;28;20201;-48
2021/05/28 07:34:56;;;;;;;1999.90;999.90;;;14.10;99.90;;;;;;5055308;28;20172;-46
2021/05/28 07:37:23;;;;;;;1999.90;999.90;;;14.20;99.90;;;;;;5055554;28;20181;-45
2021/05/28 07:39:50;;;;;;;1999.90;999.90;;;14.50;99.90;;;;;;5055444;28;20664;-43
2021/05/28 07:42:17;;;;;;;1999.90;999.90;;;14.70;99.90;;;;;;5055513;28;20178;-42
2021/05/28 07:44:44;;;;;;;1999.90;999.90;;;14.60;99.90;;;;;;5055298;28;20184;-55
2021/05/28 07:47:12;;;;;;;1999.90;999.90;;;14.60;99.90;;;;;;5055618;28;20181;-51
2021/05/28 07:49:40;;;;;;;1999.90;999.90;;;14.70;99.90;;;;;;5055352;28;20256;-58
2021/05/28 07:52:08;;;;;;;1999.90;999.90;;;14.50;99.90;;;;;;5055380;28;20180;-54
2021/05/28 07:54:35;;;;;;;1999.90;999.90;;;14.50;99.90;;;;;;5055496;28;20252;-51
2021/05/28 07:57:04;;;;;;;1999.90;999.90;;;14.50;99.90;;;;;;5055327;28;20629;-56
2021/05/28 07:59:31;;;;;;;1999.90;999.90;;;14.40;99.90;;;;;;5054992;28;20173;-54
2021/05/28 08:01:58;;;;;;;1999.90;999.90;;;14.50;99.90;;;;;;5054975;28;20193;-54
2021/05/28 08:04:24;;;;;;;1999.90;999.90;;;14.50;99.90;;;;;;5054801;28;20184;-57
2021/05/28 08:06:51;;;;;;;1999.90;999.90;;;14.40;99.90;;;;;;5054790;28;20185;-52
2021/05/28 08:09:18;;;;;;;1999.90;999.90;;;14.40;99.90;;;;;;5055078;28;20616;-54
2021/05/28 08:11:45;;;;;;;1999.90;999.90;;;14.50;99.90;;;;;;5055192;28;20693;-58
2021/05/28 08:14:11;;;;;;;1999.90;999.90;;;14.60;99.90;;;;;;5054817;28;20173;-57
2021/05/28 08:16:38;;;;;;;1999.90;999.90;;;14.60;99.90;;;;;;5054854;28;20646;-57
2021/05/28 08:19:05;;;;;;;1999.90;999.90;;;14.60;99.90;;;;;;5055028;28;20215;-56
2021/05/28 08:21:32;;;;;;;1999.90;999.90;;;14.60;99.90;;;;;;5054489;28;20686;-58
2021/05/28 08:23:58;;;;;;;1999.90;999.90;;;15.20;99.90;;;;;;5054615;28;20644;-58
2021/05/28 08:26:25;;;;;;;1999.90;999.90;;;15.50;99.90;;;;;;5054159;28;20261;-58
2021/05/28 08:28:54;;;;;;;1999.90;999.90;;;15.40;99.90;;;;;;5054621;28;20299;-51
2021/05/28 08:31:21;;;;;;;1999.90;999.90;;;15.20;99.90;;;;;;5054778;28;20168;-58
2021/05/28 08:33:48;;;;;;;1999.90;999.90;;;15.10;99.90;;;;;;5054807;28;20357;-57
2021/05/28 08:36:15;;;;;;;1999.90;999.90;;;15.00;99.90;;;;;;5054570;28;20177;-57
2021/05/28 08:38:42;;;;;;;1999.90;999.90;;;15.00;99.90;;;;;;5054475;28;20165;-49
2021/05/28 08:41:10;;;;;;;1999.90;999.90;;;15.00;99.90;;;;;;5054593;28;20245;-57
2021/05/28 08:43:41;;;;;;;1999.90;999.90;;;15.20;99.90;;;;;;5054498;28;20208;-57
2021/05/28 08:46:08;;;;;;;1999.90;999.90;;;15.30;99.90;;;;;;5054689;28;20162;-50
2021/05/28 08:48:35;;;;;;;1999.90;999.90;;;15.70;99.90;;;;;;5054276;28;20169;-55
2021/05/28 08:51:02;;;;;;;1999.90;999.90;;;15.40;99.90;;;;;;5054235;28;20188;-59
2021/05/28 08:53:29;;;;;;;1999.90;999.90;;;15.40;99.90;;;;;;5053003;28;20181;-47
2021/05/28 08:55:55;;;;;;;1999.90;999.90;;;15.40;99.90;;;;;;5054258;28;20181;-50
2021/05/28 08:58:23;;;;;;;1999.90;999.90;;;15.40;99.90;;;;;;5054092;28;20197;-51
2021/05/28 09:00:50;;;;;;;1999.90;999.90;;;15.30;99.90;;;;;;5054026;28;20233;-49
2021/05/28 09:03:21;;;;;;;1999.90;999.90;;;15.40;99.90;;;;;;5053934;28;20203;-52
2021/05/28 09:05:50;;;;;;;1999.90;999.90;;;15.60;99.90;;;;;;5053945;28;20272;-51
2021/05/28 09:08:33;;;;;;;1999.90;999.90;;;15.50;99.90;;;;;;5054004;28;20177;-59
2021/05/28 09:11:15;;;;;;;1999.90;999.90;;;16.20;99.90;;;;;;5054009;28;20634;-56
2021/05/28 09:13:56;;;;;;;1999.90;999.90;;;16.40;99.90;;;;;;5054001;28;20161;-61
2021/05/28 09:16:27;;;;;;;1999.90;999.90;;;16.50;99.90;;;;;;5053675;28;20165;-59
2021/05/28 09:19:01;;;;;;;1999.90;999.90;;;15.90;99.90;;;;;;5054181;28;20170;-55
2021/05/28 09:21:33;;;;;;;1999.90;999.90;;;15.70;99.90;;;;;;5053763;28;20315;-57
2021/05/28 09:24:02;;;;;;;1999.90;999.90;;;15.50;99.90;;;;;;5053779;28;20262;-60
2021/05/28 09:26:30;;;;;;;1999.90;999.90;;;15.40;99.90;;;;;;5053781;28;20180;-59
2021/05/28 09:28:59;;;;;;;1999.90;999.90;;;15.50;99.90;;;;;;5053598;28;20212;-59
2021/05/28 09:31:27;;;;;;;1999.90;999.90;;;15.50;99.90;;;;;;5053736;28;20178;-58
2021/05/28 09:33:56;;;;;;;1999.90;999.90;;;15.40;99.90;;;;;;5053728;28;20172;-47
2021/05/28 09:36:28;;;;;;;1999.90;999.90;;;15.90;99.90;;;;;;5052748;28;20256;-60
2021/05/28 09:39:10;;;;;;;1999.90;999.90;;;16.00;99.90;;;;;;5053545;28;20166;-59
2021/05/28 09:41:50;;;;;;;1999.90;999.90;;;16.00;99.90;;;;;;5053477;28;20197;-59
2021/05/28 09:44:22;;;;;;;1999.90;999.90;;;16.30;99.90;;;;;;5053583;28;20149;-60
2021/05/28 09:46:57;;;;;;;1999.90;999.90;;;16.50;99.90;;;;;;5053510;28;20161;-61
2021/05/28 09:49:32;;;;;;;1999.90;999.90;;;16.60;99.90;;;;;;5052127;28;20518;-47
2021/05/28 09:52:10;;;;;;;1999.90;999.90;;;17.20;99.90;;;;;;5053341;28;20248;-66
2021/05/28 09:54:38;;;;;;;1999.90;999.90;;;17.80;99.90;;;;;;5053434;28;20157;-58
2021/05/28 09:57:06;;;;;;;1999.90;999.90;;;18.00;99.90;;;;;;5053283;28;20250;-61
2021/05/28 09:59:44;;;;;;;1999.90;999.90;;;17.40;99.90;;;;;;5053164;28;20173;-61
2021/05/28 10:03:04;;;;;;;1999.90;999.90;;;16.80;99.90;;;;;;5053173;28;20196;-60
2021/05/28 10:05:06;;;;;;;1999.90;999.90;;;16.60;99.90;;;;;;5045676;28;20189;-60
2021/05/28 10:07:36;;;;;;;1999.90;999.90;;;16.40;99.90;;;;;;5052961;28;20628;-57
2021/05/28 10:10:04;;;;;;;1999.90;999.90;;;16.20;99.90;;;;;;5052809;28;20294;-52
2021/05/28 10:12:31;;;;;;;1999.90;999.90;;;15.90;99.90;;;;;;5052700;28;20168;-57
2021/05/28 10:14:58;;;;;;;1999.90;999.90;;;15.80;99.90;;;;;;5052677;28;20219;-59
2021/05/28 10:17:25;;;;;;;1999.90;999.90;;;15.80;99.90;;;;;;5052644;28;20239;-56
2021/05/28 10:19:51;;;;;;;1999.90;999.90;;;15.90;99.90;;;;;;5052536;28;20177;-58
2021/05/28 10:22:22;;;;;;;1999.90;999.90;;;16.00;99.90;;;;;;5052565;28;20177;-55
2021/05/28 10:24:49;;;;;;;1999.90;999.90;;;16.00;99.90;;;;;;5052620;28;20246;-57
2021/05/28 10:27:25;;;;;;;1999.90;999.90;;;15.90;99.90;;;;;;5052619;28;20177;-47
2021/05/28 10:29:54;;;;;;;1999.90;999.90;;;15.80;99.90;;;;;;5052480;28;20634;-59
2021/05/28 10:32:22;;;;;;;1999.90;999.90;;;16.20;99.90;;;;;;5052675;28;20549;-51
2021/05/28 10:35:10;;;;;;;1999.90;999.90;;;16.40;99.90;;;;;;5052887;28;20230;-59
2021/05/28 10:37:41;;;;;;;1999.90;999.90;;;16.20;99.90;;;;;;5052702;28;20157;-53
2021/05/28 10:40:29;;;;;;;1999.90;999.90;;;16.00;99.90;;;;;;5052606;28;20276;-61
2021/05/28 10:42:58;;;;;;;1999.90;999.90;;;15.90;99.90;;;;;;5052562;28;20162;-55
2021/05/28 10:45:57;;;;;;;1999.90;999.90;;;16.00;99.90;;;;;;5052589;28;20597;-58
2021/05/28 10:48:42;;;;;;;1999.90;999.90;;;16.00;99.90;;;;;;5053965;28;20173;-57
2021/05/28 10:51:12;;;;;;;1999.90;999.90;;;16.00;99.90;;;;;;5056687;28;20526;-55
2021/05/28 10:54:00;;;;;;;1999.90;999.90;;;16.10;99.90;;;;;;5056586;28;20207;-57
2021/05/28 10:56:44;;;;;;;1999.90;999.90;;;16.20;99.90;;;;;;5049487;28;20315;-56
2021/05/28 10:59:16;;;;;;;1999.90;999.90;;;16.10;99.90;;;;;;5056653;28;20165;-50
2021/05/28 11:01:56;;;;;;;1999.90;999.90;;;16.00;99.90;;;;;;5056377;28;20269;-59
2021/05/28 11:04:24;;;;;;;1999.90;999.90;;;16.10;99.90;;;;;;5056517;28;20167;-56
2021/05/28 11:07:00;;;;;;;1999.90;999.90;;;16.10;99.90;;;;;;5056622;28;20195;-58
2021/05/28 11:09:51;;;;;;;1999.90;999.90;;;16.50;99.90;;;;;;5056391;28;20295;-63
2021/05/28 11:12:17;;;;;;;1999.90;999.90;;;16.50;99.90;;;;;;5056410;28;20196;-60
2021/05/28 11:15:13;;;;;;;1999.90;999.90;;;16.60;99.90;;;;;;5056358;28;20157;-59
2021/05/28 11:18:10;;;;;;;1999.90;999.90;;;16.60;99.90;;;;;;5056244;28;20188;-63
2021/05/28 11:20:39;;;;;;;1999.90;999.90;;;16.70;99.90;;;;;;5047762;28;20213;-61
2021/05/28 11:23:13;;;;;;;1999.90;999.90;;;16.80;99.90;;;;;;5055319;28;20252;-62
2021/05/28 11:25:53;;;;;;;1999.90;999.90;;;16.90;99.90;;;;;;5056048;28;20158;-52
2021/05/28 11:28:22;;;;;;;1999.90;999.90;;;17.10;99.90;;;;;;5055322;28;20386;-61
2021/05/28 11:30:54;;;;;;;1999.90;999.90;;;17.20;99.90;;;;;;5054811;28;20225;-61
2021/05/28 11:33:42;;;;;;;1999.90;999.90;;;17.40;99.90;;;;;;5055962;28;20639;-58
2021/05/28 11:36:21;;;;;;;1999.90;999.90;;;17.10;99.90;;;;;;5055933;28;20165;-58
2021/05/28 11:39:06;;;;;;;1999.90;999.90;;;16.70;99.90;;;;;;5055836;28;20177;-58
2021/05/28 11:41:45;;;;;;;1999.90;999.90;;;16.50;99.90;;;;;;5055766;28;20189;-58
2021/05/28 11:44:13;;;;;;;1999.90;999.90;;;16.40;99.90;;;;;;5055794;28;20173;-58
2021/05/28 11:46:46;;;;;;;1999.90;999.90;;;16.40;99.90;;;;;;5055668;28;20173;-59
2021/05/28 11:49:17;;;;;;;1999.90;999.90;;;16.40;99.90;;;;;;5055783;28;20223;-58
2021/05/28 11:51:45;;;;;;;1999.90;999.90;;;16.60;99.90;;;;;;5055655;28;20165;-58
2021/05/28 11:54:26;;;;;;;1999.90;999.90;;;16.70;99.90;;;;;;5055463;28;20197;-55
2021/05/28 11:57:06;;;;;;;1999.90;999.90;;;16.80;99.90;;;;;;5055678;28;20175;-58
2021/05/28 11:59:50;;;;;;;1999.90;999.90;;;16.80;99.90;;;;;;5054320;28;20252;-58
2021/05/28 12:02:44;;;;;;;1999.90;999.90;;;16.90;99.90;;;;;;5055313;28;20244;-58
2021/05/28 12:05:49;;;;;;;1999.90;999.90;;;17.00;99.90;;;;;;5055320;28;20655;-58
2021/05/28 12:08:19;;;;;;;1999.90;999.90;;;17.10;99.90;;;;;;5013425;28;20253;-57
2021/05/28 12:10:53;;;;;;;1999.90;999.90;;;17.20;99.90;;;;;;5013459;28;20175;-58